Ten'yo — JBBC — position and weather

sailwx.info

Track history (hours):
 
Tides and Currents Weather Stations Pressure Air Temp Water Temp Dewpoint Dewpoint Depression Visibility Wind Speed Wind Dir Waves Ship Positions

Oceanographic research ship Ten'yo (Japan)

Detailed information on ship capabilities available from University of Delaware's Ocean Information Center.

Last reported at 2015-Jan-19 00:13 UTC. Time now 2015-Jan-29 22:29 UTC.
Position N 35°38' E 139°47'.
Warning: this ship's position is 10 days out of date.

Length 56 m; draft 3.6 m.

Type: Other ship. MMSI: 431100350.

Date/timePositionNaut miles runAvg speedWind from/ knotsBaromVisibWave heightAir tempDewpointWater temp
2015-Jan-19 00:13N 35°38' E 139°47'5 6.9
2015-Jan-18 23:32N 35°34' E 139°49'3 2.6
2015-Jan-18 22:28N 35°35' E 139°52'0 0.0
2015-Jan-18 19:28N 35°35' E 139°52'0 0.0
2015-Jan-18 18:22N 35°35' E 139°52'0 0.0
2015-Jan-18 17:31N 35°35' E 139°52'0 0.0
2015-Jan-18 15:25N 35°35' E 139°52'0 0.0
2015-Jan-18 12:28N 35°35' E 139°52'0 0.0
2015-Jan-18 11:19N 35°35' E 139°52'0 0.0
2015-Jan-18 09:07N 35°35' E 139°52'0 0.0
2015-Jan-18 05:16N 35°35' E 139°52'6 4.9
2015-Jan-18 04:08N 35°30' E 139°53'711.7
2015-Jan-18 03:32N 35°25' E 139°47'1211.0
2015-Jan-18 02:27N 35°13' E 139°47'910.0
2015-Jan-18 01:33N 35°07' E 139°39'2 2.1
2015-Jan-18 00:30N 35°08' E 139°37'0 0.3
2015-Jan-17 23:33N 35°07' E 139°37'8 7.7
2015-Jan-17 22:33N 35°04' E 139°28'12 5.3
2015-Jan-17 20:15N 34°59' E 139°15'4 5.6
2015-Jan-17 19:32N 34°56' E 139°12'6 5.5
2015-Jan-17 18:32N 34°51' E 139°09'209 7.0
2015-Jan-16 12:33N 34°14' E 134°58'2 1.3
2015-Jan-16 11:23N 34°15' E 135°00'1 1.3
2015-Jan-16 10:33N 34°14' E 135°01'0 0.5
2015-Jan-16 09:33N 34°14' E 135°02'0 0.5
2015-Jan-16 08:34N 34°14' E 135°02'1 0.5
2015-Jan-16 07:33N 34°15' E 135°03'0 0.4
2015-Jan-16 06:33N 34°15' E 135°03'1 0.7
2015-Jan-16 05:33N 34°14' E 135°04'7 6.6
2015-Jan-16 04:33N 34°11' E 134°57'5 4.7
2015-Jan-16 03:32N 34°10' E 135°02'5 5.3
2015-Jan-16 02:33N 34°09' E 134°56'7 6.6
2015-Jan-16 01:33N 34°08' E 135°04'8 6.0
2015-Jan-16 00:16N 34°07' E 134°55'6 5.8
2015-Jan-15 23:18N 34°05' E 135°01'2 3.3
2015-Jan-15 22:33N 34°06' E 135°04'8 7.8
2015-Jan-15 21:33N 34°14' E 135°04'4 4.0
2015-Jan-15 20:33N 34°10' E 135°04'3 3.2
2015-Jan-15 19:30N 34°06' E 135°04'8 8.1
2015-Jan-15 18:33N 34°14' E 135°04'5 4.9
2015-Jan-15 17:33N 34°09' E 135°04'1 0.6
2015-Jan-15 16:29N 34°08' E 135°04'7 7.3
2015-Jan-15 15:34N 34°15' E 135°04'6 6.1
2015-Jan-15 14:33N 34°09' E 135°04'2 2.1
2015-Jan-15 13:32N 34°07' E 135°03'8 7.6
2015-Jan-15 12:25N 34°15' E 135°03'4 4.4
2015-Jan-15 11:33N 34°11' E 135°03'7 6.3
2015-Jan-15 10:31N 34°05' E 135°03'8 7.7
2015-Jan-15 09:31N 34°12' E 135°03'8 7.8
2015-Jan-15 08:30N 34°19' E 134°58'2 1.0
2015-Jan-15 06:26N 34°21' E 134°58'1 0.7
2015-Jan-15 05:32N 34°22' E 134°59'3 2.5
2015-Jan-15 04:23N 34°19' E 134°58'1 1.0
2015-Jan-15 03:25N 34°18' E 134°59'5 5.6
2015-Jan-15 02:33N 34°14' E 135°03'7 7.3
2015-Jan-15 01:33N 34°07' E 135°03'2 2.0
2015-Jan-15 00:30N 34°09' E 135°03'5 5.0
2015-Jan-14 23:34N 34°14' E 135°03'8 8.0
2015-Jan-14 22:33N 34°06' E 135°03'6 4.7
2015-Jan-14 21:19N 34°12' E 135°03'2 2.9
2015-Jan-14 20:33N 34°14' E 135°03'8 8.1
2015-Jan-14 19:33N 34°06' E 135°03'5 4.9
2015-Jan-14 18:29N 34°11' E 135°03'1 1.4
2015-Jan-14 17:33N 34°12' E 135°03'7 6.3
2015-Jan-14 16:26N 34°05' E 135°02'8 8.1
2015-Jan-14 15:29N 34°13' E 135°02'1 0.8
2015-Jan-14 14:33N 34°13' E 135°02'8 7.7
2015-Jan-14 13:28N 34°05' E 135°02'7 5.3
2015-Jan-14 12:07N 34°12' E 135°02'3 4.7
2015-Jan-14 11:33N 34°15' E 135°02'7 6.9
2015-Jan-14 10:33N 34°08' E 135°02'2 1.6
2015-Jan-14 09:16N 34°10' E 135°02'5 6.9
2015-Jan-14 08:34N 34°15' E 135°02'8 8.0
2015-Jan-14 07:32N 34°07' E 135°02'3 3.1
2015-Jan-14 06:29N 34°10' E 135°02'4 4.3
2015-Jan-14 05:33N 34°13' E 135°04'9 6.9
2015-Jan-14 04:18N 34°14' E 134°54'1 1.0
2015-Jan-14 03:32N 34°14' E 134°54'0 0.0
2015-Jan-14 02:22N 34°14' E 134°54'1 1.2
2015-Jan-14 01:29N 34°13' E 134°55'7 7.3
2015-Jan-14 00:33N 34°12' E 135°03'5 4.6
2015-Jan-13 23:33N 34°13' E 135°09'0 0.0
2015-Jan-13 22:31N 34°13' E 135°09'0 0.0
2015-Jan-13 21:33N 34°13' E 135°09'0 0.0
2015-Jan-13 20:33N 34°13' E 135°09'0 0.0
2015-Jan-13 19:33N 34°13' E 135°09'0 0.0
2015-Jan-13 18:33N 34°13' E 135°09'0 0.0
2015-Jan-13 17:33N 34°13' E 135°09'0 0.0
2015-Jan-13 16:33N 34°13' E 135°09'0 0.0
2015-Jan-13 15:33N 34°13' E 135°09'0 0.0
2015-Jan-13 14:33N 34°13' E 135°09'0 0.0
2015-Jan-13 13:33N 34°13' E 135°09'0 0.0
2015-Jan-13 12:33N 34°13' E 135°09'0 0.0
2015-Jan-13 11:33N 34°13' E 135°09'0 0.0
2015-Jan-13 10:33N 34°13' E 135°09'0 0.0
2015-Jan-13 09:33N 34°13' E 135°09'0 0.0
2015-Jan-13 08:33N 34°13' E 135°09'0 0.0
2015-Jan-13 07:33N 34°13' E 135°09'0 0.0
2015-Jan-13 06:33N 34°13' E 135°09'0 0.0
2015-Jan-13 05:33N 34°13' E 135°09'0 0.0
2015-Jan-13 04:33N 34°13' E 135°09'0 0.0
2015-Jan-13 03:33N 34°13' E 135°09'0 0.0
2015-Jan-13 02:33N 34°13' E 135°09'0 0.0
2015-Jan-13 01:33N 34°13' E 135°09'6 5.9
2015-Jan-13 00:33N 34°09' E 135°03'2 1.6
2015-Jan-12 23:22N 34°10' E 135°02'3 4.2
2015-Jan-12 22:33N 34°14' E 135°02'8 8.0
2015-Jan-12 21:33N 34°06' E 135°02'5 5.0
2015-Jan-12 20:32N 34°11' E 135°02'0 0.3
2015-Jan-12 19:33N 34°11' E 135°02'3 1.6
2015-Jan-12 17:25N 34°15' E 135°01'6 6.8
2015-Jan-12 16:33N 34°09' E 135°01'2 1.4
2015-Jan-12 15:06N 34°10' E 134°59'4 4.7
2015-Jan-12 14:10N 34°14' E 134°59'2 4.0
2015-Jan-12 13:33N 34°12' E 134°59'7 6.9
2015-Jan-12 12:31N 34°04' E 134°59'7 6.7
2015-Jan-12 11:30N 34°11' E 134°60'1 1.1
2015-Jan-12 10:33N 34°12' E 134°60'8 7.8
2015-Jan-12 09:30N 34°04' E 134°60'11 7.9
2015-Jan-12 08:08N 34°15' E 134°60'4 7.8
2015-Jan-12 07:33N 34°11' E 134°60'4 1.9
2015-Jan-12 05:25N 34°15' E 135°00'6 7.2
2015-Jan-12 04:33N 34°09' E 134°59'6 3.2
2015-Jan-12 02:33N 34°15' E 134°59'0 0.2
2015-Jan-12 01:32N 34°15' E 134°59'7 7.6
2015-Jan-12 00:33N 34°08' E 134°59'3 2.2
2015-Jan-11 23:20N 34°10' E 134°59'2 2.1
2015-Jan-11 22:33N 34°12' E 134°59'3 1.1
2015-Jan-11 20:14N 34°14' E 134°58'4 5.5
2015-Jan-11 19:33N 34°11' E 134°58'4 1.7
2015-Jan-11 17:11N 34°15' E 134°58'4 6.2
2015-Jan-11 16:33N 34°11' E 134°58'3 2.1
2015-Jan-11 15:17N 34°08' E 134°58'7 4.2
2015-Jan-11 13:31N 34°15' E 135°00'6 6.2
2015-Jan-11 12:33N 34°09' E 135°00'4 2.0
2015-Jan-11 10:27N 34°13' E 135°01'3 3.8
2015-Jan-11 09:33N 34°10' E 135°01'4 2.2
2015-Jan-11 07:31N 34°14' E 135°01'2 1.2
2015-Jan-11 06:06N 34°15' E 134°59'4 6.7
2015-Jan-11 05:30N 34°19' E 134°58'1 0.8
2015-Jan-11 04:22N 34°18' E 134°58'3 3.9
2015-Jan-11 03:33N 34°15' E 134°59'1 1.1
2015-Jan-11 02:32N 34°16' E 134°59'0 0.2
2015-Jan-11 01:12N 34°16' E 134°59'4 5.7
2015-Jan-11 00:31N 34°12' E 134°58'8 7.7
2015-Jan-10 23:32N 34°05' E 134°58'7 5.1
2015-Jan-10 22:14N 34°11' E 135°01'3 4.5
2015-Jan-10 21:33N 34°14' E 135°01'8 8.2
2015-Jan-10 20:33N 34°06' E 135°01'6 5.8
2015-Jan-10 19:27N 34°12' E 135°01'1 0.7
2015-Jan-10 18:33N 34°11' E 135°01'3 1.3
2015-Jan-10 16:26N 34°14' E 135°01'5 5.4
2015-Jan-10 15:33N 34°09' E 135°00'4 3.7
2015-Jan-10 14:33N 34°06' E 135°00'6 5.0
2015-Jan-10 13:26N 34°11' E 135°00'2 2.2
2015-Jan-10 12:33N 34°13' E 135°00'8 7.7
2015-Jan-10 11:32N 34°05' E 135°00'10 4.5
2015-Jan-10 09:21N 34°15' E 134°58'6 7.9
2015-Jan-10 08:33N 34°09' E 134°58'5 2.5
2015-Jan-10 06:33N 34°14' E 134°57'7 7.3
2015-Jan-10 05:32N 34°06' E 134°57'6 2.9
2015-Jan-10 03:32N 34°12' E 134°57'3 1.3
2015-Jan-10 01:07N 34°15' E 134°57'4 7.2
2015-Jan-10 00:30N 34°11' E 134°57'4 1.8
2015-Jan-09 22:19N 34°15' E 134°57'7 8.6
2015-Jan-09 21:32N 34°08' E 134°57'6 2.8
2015-Jan-09 19:33N 34°13' E 134°56'9 8.4
2015-Jan-09 18:31N 34°05' E 134°56'6 3.0
2015-Jan-09 16:32N 34°11' E 134°56'8 8.1
2015-Jan-09 15:33N 34°03' E 134°56'  
Track history (hours):
 
Tides and Currents Weather Stations Pressure Air Temp Water Temp Dewpoint Dewpoint Depression Visibility Wind Speed Wind Dir Waves Ship Positions

Oceanographic research ship Ten'yo (Japan)

Detailed information on ship capabilities available from University of Delaware's Ocean Information Center.

Last reported at 2015-Jan-19 00:13 UTC. Time now 2015-Jan-29 22:29 UTC.
Position N 35°38' E 139°47'.
Warning: this ship's position is 10 days out of date.

Length 56 m; draft 3.6 m.

Type: Other ship. MMSI: 431100350.

Date/timePositionNaut miles runAvg speedWind from/ knotsBaromVisibWave heightAir tempDewpointWater temp
2015-Jan-19 00:13N 35°38' E 139°47'5 6.9
2015-Jan-18 23:32N 35°34' E 139°49'3 2.6
2015-Jan-18 22:28N 35°35' E 139°52'0 0.0
2015-Jan-18 19:28N 35°35' E 139°52'0 0.0
2015-Jan-18 18:22N 35°35' E 139°52'0 0.0
2015-Jan-18 17:31N 35°35' E 139°52'0 0.0
2015-Jan-18 15:25N 35°35' E 139°52'0 0.0
2015-Jan-18 12:28N 35°35' E 139°52'0 0.0
2015-Jan-18 11:19N 35°35' E 139°52'0 0.0
2015-Jan-18 09:07N 35°35' E 139°52'0 0.0
2015-Jan-18 05:16N 35°35' E 139°52'6 4.9
2015-Jan-18 04:08N 35°30' E 139°53'711.7
2015-Jan-18 03:32N 35°25' E 139°47'1211.0
2015-Jan-18 02:27N 35°13' E 139°47'910.0
2015-Jan-18 01:33N 35°07' E 139°39'2 2.1
2015-Jan-18 00:30N 35°08' E 139°37'0 0.3
2015-Jan-17 23:33N 35°07' E 139°37'8 7.7
2015-Jan-17 22:33N 35°04' E 139°28'12 5.3
2015-Jan-17 20:15N 34°59' E 139°15'4 5.6
2015-Jan-17 19:32N 34°56' E 139°12'6 5.5
2015-Jan-17 18:32N 34°51' E 139°09'209 7.0
2015-Jan-16 12:33N 34°14' E 134°58'2 1.3
2015-Jan-16 11:23N 34°15' E 135°00'1 1.3
2015-Jan-16 10:33N 34°14' E 135°01'0 0.5
2015-Jan-16 09:33N 34°14' E 135°02'0 0.5
2015-Jan-16 08:34N 34°14' E 135°02'1 0.5
2015-Jan-16 07:33N 34°15' E 135°03'0 0.4
2015-Jan-16 06:33N 34°15' E 135°03'1 0.7
2015-Jan-16 05:33N 34°14' E 135°04'7 6.6
2015-Jan-16 04:33N 34°11' E 134°57'5 4.7
2015-Jan-16 03:32N 34°10' E 135°02'5 5.3
2015-Jan-16 02:33N 34°09' E 134°56'7 6.6
2015-Jan-16 01:33N 34°08' E 135°04'8 6.0
2015-Jan-16 00:16N 34°07' E 134°55'6 5.8
2015-Jan-15 23:18N 34°05' E 135°01'2 3.3
2015-Jan-15 22:33N 34°06' E 135°04'8 7.8
2015-Jan-15 21:33N 34°14' E 135°04'4 4.0
2015-Jan-15 20:33N 34°10' E 135°04'3 3.2
2015-Jan-15 19:30N 34°06' E 135°04'8 8.1
2015-Jan-15 18:33N 34°14' E 135°04'5 4.9
2015-Jan-15 17:33N 34°09' E 135°04'1 0.6
2015-Jan-15 16:29N 34°08' E 135°04'7 7.3
2015-Jan-15 15:34N 34°15' E 135°04'6 6.1
2015-Jan-15 14:33N 34°09' E 135°04'2 2.1
2015-Jan-15 13:32N 34°07' E 135°03'8 7.6
2015-Jan-15 12:25N 34°15' E 135°03'4 4.4
2015-Jan-15 11:33N 34°11' E 135°03'7 6.3
2015-Jan-15 10:31N 34°05' E 135°03'8 7.7
2015-Jan-15 09:31N 34°12' E 135°03'8 7.8
2015-Jan-15 08:30N 34°19' E 134°58'2 1.0
2015-Jan-15 06:26N 34°21' E 134°58'1 0.7
2015-Jan-15 05:32N 34°22' E 134°59'3 2.5
2015-Jan-15 04:23N 34°19' E 134°58'1 1.0
2015-Jan-15 03:25N 34°18' E 134°59'5 5.6
2015-Jan-15 02:33N 34°14' E 135°03'7 7.3
2015-Jan-15 01:33N 34°07' E 135°03'2 2.0
2015-Jan-15 00:30N 34°09' E 135°03'5 5.0
2015-Jan-14 23:34N 34°14' E 135°03'8 8.0
2015-Jan-14 22:33N 34°06' E 135°03'6 4.7
2015-Jan-14 21:19N 34°12' E 135°03'2 2.9
2015-Jan-14 20:33N 34°14' E 135°03'8 8.1
2015-Jan-14 19:33N 34°06' E 135°03'5 4.9
2015-Jan-14 18:29N 34°11' E 135°03'1 1.4
2015-Jan-14 17:33N 34°12' E 135°03'7 6.3
2015-Jan-14 16:26N 34°05' E 135°02'8 8.1
2015-Jan-14 15:29N 34°13' E 135°02'1 0.8
2015-Jan-14 14:33N 34°13' E 135°02'8 7.7
2015-Jan-14 13:28N 34°05' E 135°02'7 5.3
2015-Jan-14 12:07N 34°12' E 135°02'3 4.7
2015-Jan-14 11:33N 34°15' E 135°02'7 6.9
2015-Jan-14 10:33N 34°08' E 135°02'2 1.6
2015-Jan-14 09:16N 34°10' E 135°02'5 6.9
2015-Jan-14 08:34N 34°15' E 135°02'8 8.0
2015-Jan-14 07:32N 34°07' E 135°02'3 3.1
2015-Jan-14 06:29N 34°10' E 135°02'4 4.3
2015-Jan-14 05:33N 34°13' E 135°04'9 6.9
2015-Jan-14 04:18N 34°14' E 134°54'1 1.0
2015-Jan-14 03:32N 34°14' E 134°54'0 0.0
2015-Jan-14 02:22N 34°14' E 134°54'1 1.2
2015-Jan-14 01:29N 34°13' E 134°55'7 7.3
2015-Jan-14 00:33N 34°12' E 135°03'5 4.6
2015-Jan-13 23:33N 34°13' E 135°09'0 0.0
2015-Jan-13 22:31N 34°13' E 135°09'0 0.0
2015-Jan-13 21:33N 34°13' E 135°09'0 0.0
2015-Jan-13 20:33N 34°13' E 135°09'0 0.0
2015-Jan-13 19:33N 34°13' E 135°09'0 0.0
2015-Jan-13 18:33N 34°13' E 135°09'0 0.0
2015-Jan-13 17:33N 34°13' E 135°09'0 0.0
2015-Jan-13 16:33N 34°13' E 135°09'0 0.0
2015-Jan-13 15:33N 34°13' E 135°09'0 0.0
2015-Jan-13 14:33N 34°13' E 135°09'0 0.0
2015-Jan-13 13:33N 34°13' E 135°09'0 0.0
2015-Jan-13 12:33N 34°13' E 135°09'0 0.0
2015-Jan-13 11:33N 34°13' E 135°09'0 0.0
2015-Jan-13 10:33N 34°13' E 135°09'0 0.0
2015-Jan-13 09:33N 34°13' E 135°09'0 0.0
2015-Jan-13 08:33N 34°13' E 135°09'0 0.0
2015-Jan-13 07:33N 34°13' E 135°09'0 0.0
2015-Jan-13 06:33N 34°13' E 135°09'0 0.0
2015-Jan-13 05:33N 34°13' E 135°09'0 0.0
2015-Jan-13 04:33N 34°13' E 135°09'0 0.0
2015-Jan-13 03:33N 34°13' E 135°09'0 0.0
2015-Jan-13 02:33N 34°13' E 135°09'0 0.0
2015-Jan-13 01:33N 34°13' E 135°09'6 5.9
2015-Jan-13 00:33N 34°09' E 135°03'2 1.6
2015-Jan-12 23:22N 34°10' E 135°02'3 4.2
2015-Jan-12 22:33N 34°14' E 135°02'8 8.0
2015-Jan-12 21:33N 34°06' E 135°02'5 5.0
2015-Jan-12 20:32N 34°11' E 135°02'0 0.3
2015-Jan-12 19:33N 34°11' E 135°02'3 1.6
2015-Jan-12 17:25N 34°15' E 135°01'6 6.8
2015-Jan-12 16:33N 34°09' E 135°01'2 1.4
2015-Jan-12 15:06N 34°10' E 134°59'4 4.7
2015-Jan-12 14:10N 34°14' E 134°59'2 4.0
2015-Jan-12 13:33N 34°12' E 134°59'7 6.9
2015-Jan-12 12:31N 34°04' E 134°59'7 6.7
2015-Jan-12 11:30N 34°11' E 134°60'1 1.1
2015-Jan-12 10:33N 34°12' E 134°60'8 7.8
2015-Jan-12 09:30N 34°04' E 134°60'11 7.9
2015-Jan-12 08:08N 34°15' E 134°60'4 7.8
2015-Jan-12 07:33N 34°11' E 134°60'4 1.9
2015-Jan-12 05:25N 34°15' E 135°00'6 7.2
2015-Jan-12 04:33N 34°09' E 134°59'6 3.2
2015-Jan-12 02:33N 34°15' E 134°59'0 0.2
2015-Jan-12 01:32N 34°15' E 134°59'7 7.6
2015-Jan-12 00:33N 34°08' E 134°59'3 2.2
2015-Jan-11 23:20N 34°10' E 134°59'2 2.1
2015-Jan-11 22:33N 34°12' E 134°59'3 1.1
2015-Jan-11 20:14N 34°14' E 134°58'4 5.5
2015-Jan-11 19:33N 34°11' E 134°58'4 1.7
2015-Jan-11 17:11N 34°15' E 134°58'4 6.2
2015-Jan-11 16:33N 34°11' E 134°58'3 2.1
2015-Jan-11 15:17N 34°08' E 134°58'7 4.2
2015-Jan-11 13:31N 34°15' E 135°00'6 6.2
2015-Jan-11 12:33N 34°09' E 135°00'4 2.0
2015-Jan-11 10:27N 34°13' E 135°01'3 3.8
2015-Jan-11 09:33N 34°10' E 135°01'4 2.2
2015-Jan-11 07:31N 34°14' E 135°01'2 1.2
2015-Jan-11 06:06N 34°15' E 134°59'4 6.7
2015-Jan-11 05:30N 34°19' E 134°58'1 0.8
2015-Jan-11 04:22N 34°18' E 134°58'3 3.9
2015-Jan-11 03:33N 34°15' E 134°59'1 1.1
2015-Jan-11 02:32N 34°16' E 134°59'0 0.2
2015-Jan-11 01:12N 34°16' E 134°59'4 5.7
2015-Jan-11 00:31N 34°12' E 134°58'8 7.7
2015-Jan-10 23:32N 34°05' E 134°58'7 5.1
2015-Jan-10 22:14N 34°11' E 135°01'3 4.5
2015-Jan-10 21:33N 34°14' E 135°01'8 8.2
2015-Jan-10 20:33N 34°06' E 135°01'6 5.8
2015-Jan-10 19:27N 34°12' E 135°01'1 0.7
2015-Jan-10 18:33N 34°11' E 135°01'3 1.3
2015-Jan-10 16:26N 34°14' E 135°01'5 5.4
2015-Jan-10 15:33N 34°09' E 135°00'4 3.7
2015-Jan-10 14:33N 34°06' E 135°00'6 5.0
2015-Jan-10 13:26N 34°11' E 135°00'2 2.2
2015-Jan-10 12:33N 34°13' E 135°00'8 7.7
2015-Jan-10 11:32N 34°05' E 135°00'10 4.5
2015-Jan-10 09:21N 34°15' E 134°58'6 7.9
2015-Jan-10 08:33N 34°09' E 134°58'5 2.5
2015-Jan-10 06:33N 34°14' E 134°57'7 7.3
2015-Jan-10 05:32N 34°06' E 134°57'6 2.9
2015-Jan-10 03:32N 34°12' E 134°57'3 1.3
2015-Jan-10 01:07N 34°15' E 134°57'4 7.2
2015-Jan-10 00:30N 34°11' E 134°57'4 1.8
2015-Jan-09 22:19N 34°15' E 134°57'7 8.6
2015-Jan-09 21:32N 34°08' E 134°57'6 2.8
2015-Jan-09 19:33N 34°13' E 134°56'9 8.4
2015-Jan-09 18:31N 34°05' E 134°56'6 3.0
2015-Jan-09 16:32N 34°11' E 134°56'8 8.1
2015-Jan-09 15:33N 34°03' E 134°56'  

Dump ship's entire track history